Time;durP1;ratioP1;P1;durP2;ratioP2;P2;SDS_P1;SDS_P2;PMS_P1;PMS_P2;Temp;Humidity;BMP_temperature;BMP_pressure;BME280_temperature;BME280_humidity;BME280_pressure;Samples;Min_cycle;Max_cycle;Signal;HPM_P1;HPM_P2
2023/10/24 00:01:40;;;;;;;3.87;3.10;;;12.70;99.90;;;;;;5088341;28;20198;-87
2023/10/24 00:04:05;;;;;;;4.47;3.00;;;12.70;99.90;;;;;;5085293;28;20202;-86
2023/10/24 00:06:31;;;;;;;4.10;3.27;;;12.60;99.90;;;;;;5081497;28;20616;-87
2023/10/24 00:08:57;;;;;;;4.00;2.90;;;12.60;99.90;;;;;;5079215;28;20178;-87
2023/10/24 00:11:23;;;;;;;3.67;3.10;;;12.60;99.90;;;;;;5078534;28;20174;-87
2023/10/24 00:13:49;;;;;;;4.60;3.00;;;12.60;99.90;;;;;;5077309;28;20512;-86
2023/10/24 00:16:14;;;;;;;4.90;3.30;;;12.50;99.90;;;;;;5076426;28;20752;-86
2023/10/24 00:18:40;;;;;;;3.83;2.87;;;12.50;99.90;;;;;;5076946;28;20182;-86
2023/10/24 00:21:06;;;;;;;2.90;2.47;;;12.50;99.90;;;;;;5077081;28;20194;-87
2023/10/24 00:23:32;;;;;;;2.70;2.20;;;12.50;99.90;;;;;;5089090;28;20261;-86
2023/10/24 00:25:58;;;;;;;2.70;2.17;;;12.50;99.90;;;;;;5096082;28;20169;-87
2023/10/24 00:28:23;;;;;;;4.50;2.50;;;12.50;99.90;;;;;;5097178;28;20178;-85
2023/10/24 00:30:49;;;;;;;3.33;2.77;;;12.50;99.90;;;;;;5096073;28;20587;-86
2023/10/24 00:33:14;;;;;;;2.90;2.30;;;12.50;99.90;;;;;;5095425;28;20173;-85
2023/10/24 00:35:40;;;;;;;3.40;2.43;;;12.50;99.90;;;;;;5096418;28;20203;-86
2023/10/24 00:38:07;;;;;;;4.57;2.73;;;12.50;99.90;;;;;;5096302;28;20651;-86
2023/10/24 00:40:33;;;;;;;4.03;2.23;;;12.50;99.90;;;;;;5095527;28;20222;-86
2023/10/24 00:43:04;;;;;;;2.97;2.53;;;12.40;99.90;;;;;;5096133;28;20274;-86
2023/10/24 00:45:32;;;;;;;3.10;2.50;;;12.40;99.90;;;;;;5095531;28;20549;-86
2023/10/24 00:47:58;;;;;;;4.57;3.43;;;12.40;99.90;;;;;;5095580;28;20197;-85
2023/10/24 00:50:24;;;;;;;4.17;3.13;;;12.50;99.90;;;;;;5096088;28;20166;-85
2023/10/24 00:52:50;;;;;;;4.17;3.33;;;12.50;99.90;;;;;;5095893;28;20625;-85
2023/10/24 00:55:16;;;;;;;4.90;3.70;;;12.40;99.90;;;;;;5096180;28;20182;-85
2023/10/24 00:57:43;;;;;;;3.97;3.10;;;12.20;99.90;;;;;;5096372;28;20234;-86
2023/10/24 01:00:10;;;;;;;4.13;2.90;;;12.40;99.90;;;;;;5096829;28;20236;-85
2023/10/24 01:02:37;;;;;;;3.40;2.80;;;12.40;99.90;;;;;;5096562;28;20175;-86
2023/10/24 01:05:03;;;;;;;4.23;3.37;;;12.40;99.90;;;;;;5095833;28;20218;-87
2023/10/24 01:07:30;;;;;;;3.80;3.40;;;12.40;99.90;;;;;;5096805;28;20211;-87
2023/10/24 01:09:57;;;;;;;3.60;3.00;;;12.40;99.90;;;;;;5097057;28;20175;-86
2023/10/24 01:12:22;;;;;;;4.20;3.20;;;12.40;99.90;;;;;;5096743;28;20176;-87
2023/10/24 01:14:48;;;;;;;3.70;2.60;;;12.30;99.90;;;;;;5113668;28;20646;-86
2023/10/24 01:17:14;;;;;;;3.47;2.93;;;12.30;99.90;;;;;;5095843;28;20174;-86
2023/10/24 01:19:40;;;;;;;3.67;2.63;;;12.20;99.90;;;;;;5097451;28;20189;-86
2023/10/24 01:22:06;;;;;;;4.20;3.20;;;12.30;99.90;;;;;;5096530;28;20170;-85
2023/10/24 01:24:32;;;;;;;3.33;2.50;;;12.30;99.90;;;;;;5097182;28;20215;-86
2023/10/24 01:26:58;;;;;;;3.40;2.80;;;12.30;99.90;;;;;;5099227;28;20212;-86
2023/10/24 01:29:24;;;;;;;3.97;3.20;;;12.20;99.90;;;;;;5100242;28;20172;-86
2023/10/24 01:31:51;;;;;;;5.20;3.37;;;12.20;99.90;;;;;;5100167;28;20192;-85
2023/10/24 01:34:17;;;;;;;5.37;3.20;;;12.20;99.90;;;;;;5100211;28;20163;-86
2023/10/24 01:36:42;;;;;;;3.63;3.03;;;12.20;99.90;;;;;;5100485;28;20176;-86
2023/10/24 01:39:08;;;;;;;3.73;3.27;;;12.20;99.90;;;;;;5100335;28;20215;-86
2023/10/24 01:41:34;;;;;;;3.97;3.53;;;12.20;99.90;;;;;;5099832;28;20179;-86
2023/10/24 01:44:00;;;;;;;5.07;3.90;;;12.30;99.90;;;;;;5100148;28;20203;-86
2023/10/24 01:46:25;;;;;;;5.40;3.83;;;12.30;99.90;;;;;;5100665;28;20582;-85
2023/10/24 01:48:51;;;;;;;4.93;3.97;;;12.20;99.90;;;;;;5101104;28;20175;-86
2023/10/24 01:51:17;;;;;;;4.70;4.10;;;12.20;99.90;;;;;;5098892;28;20380;-85
2023/10/24 01:53:43;;;;;;;4.33;3.73;;;12.30;99.90;;;;;;5099845;28;20179;-86
2023/10/24 01:56:12;;;;;;;4.93;4.43;;;12.40;99.90;;;;;;5098953;28;20210;-85
2023/10/24 01:58:39;;;;;;;5.27;4.33;;;12.30;99.90;;;;;;5099391;28;20172;-85
2023/10/24 02:01:06;;;;;;;4.80;3.90;;;12.30;99.90;;;;;;5100126;28;20171;-86
2023/10/24 02:03:32;;;;;;;6.33;4.30;;;12.30;99.90;;;;;;5100219;28;20271;-86
2023/10/24 02:05:58;;;;;;;5.27;4.77;;;12.30;99.90;;;;;;5100446;28;20263;-87
2023/10/24 02:08:24;;;;;;;6.23;4.77;;;12.30;99.90;;;;;;5112280;28;20184;-85
2023/10/24 02:10:50;;;;;;;5.20;4.33;;;12.40;99.90;;;;;;5111925;28;20179;-86
2023/10/24 02:13:16;;;;;;;4.73;4.30;;;12.50;99.90;;;;;;5108478;28;20176;-85
2023/10/24 02:15:42;;;;;;;5.10;4.47;;;12.40;99.90;;;;;;5101257;28;20179;-85
2023/10/24 02:18:08;;;;;;;5.47;4.37;;;12.40;99.90;;;;;;5100442;28;20171;-85
2023/10/24 02:20:34;;;;;;;5.17;4.37;;;12.40;99.90;;;;;;5098484;28;20371;-86
2023/10/24 02:23:00;;;;;;;5.50;5.00;;;12.40;99.90;;;;;;5098407;28;20182;-84
2023/10/24 02:25:25;;;;;;;4.37;3.97;;;12.40;99.90;;;;;;5099357;28;20185;-86
2023/10/24 02:27:52;;;;;;;6.13;4.70;;;12.30;99.90;;;;;;5097927;28;20167;-83
2023/10/24 02:30:18;;;;;;;5.80;4.90;;;12.40;99.90;;;;;;5099457;28;20270;-87
2023/10/24 02:32:44;;;;;;;5.30;4.53;;;12.40;99.90;;;;;;5099016;28;20221;-86
2023/10/24 02:35:09;;;;;;;5.07;4.57;;;12.30;99.90;;;;;;5097907;28;20180;-85
2023/10/24 02:37:36;;;;;;;4.37;3.93;;;12.40;99.90;;;;;;5103221;28;20605;-86
2023/10/24 02:40:02;;;;;;;5.00;4.47;;;12.40;99.90;;;;;;5115524;28;20192;-85
2023/10/24 02:42:28;;;;;;;5.30;4.57;;;12.40;99.90;;;;;;5102059;28;20653;-87
2023/10/24 02:44:54;;;;;;;4.30;3.90;;;12.50;99.90;;;;;;5100604;28;20205;-84
2023/10/24 02:47:19;;;;;;;5.03;4.37;;;12.40;99.90;;;;;;5099459;28;20163;-85
2023/10/24 02:49:45;;;;;;;5.80;4.27;;;12.30;99.90;;;;;;5098526;28;20577;-84
2023/10/24 02:52:10;;;;;;;4.00;3.50;;;12.30;99.90;;;;;;5098558;28;20638;-85
2023/10/24 02:54:36;;;;;;;5.57;4.03;;;12.40;99.90;;;;;;5099092;28;20177;-86
2023/10/24 02:57:02;;;;;;;4.87;3.97;;;12.30;99.90;;;;;;5098690;28;20170;-85
2023/10/24 02:59:28;;;;;;;4.80;4.03;;;12.40;99.90;;;;;;5098941;28;20541;-85
2023/10/24 03:01:54;;;;;;;5.30;3.90;;;12.30;99.90;;;;;;5098879;28;20580;-86
2023/10/24 03:04:19;;;;;;;4.60;4.10;;;12.40;99.90;;;;;;5103763;28;20211;-87
2023/10/24 03:06:45;;;;;;;6.13;4.53;;;12.50;99.90;;;;;;5111764;28;20231;-85
2023/10/24 03:09:11;;;;;;;4.97;4.03;;;12.50;99.90;;;;;;5102016;28;20652;-85
2023/10/24 03:11:36;;;;;;;4.97;4.17;;;12.50;99.90;;;;;;5100591;28;20204;-85
2023/10/24 03:14:02;;;;;;;5.20;4.07;;;12.40;99.90;;;;;;5117233;28;20301;-86
2023/10/24 03:16:27;;;;;;;4.87;4.00;;;12.50;99.90;;;;;;5097914;28;20600;-87
2023/10/24 03:18:53;;;;;;;4.77;4.27;;;12.40;99.90;;;;;;5098500;28;20681;-86
2023/10/24 03:21:19;;;;;;;4.90;4.30;;;12.40;99.90;;;;;;5097141;28;20174;-85
2023/10/24 03:23:45;;;;;;;7.20;4.97;;;12.30;99.90;;;;;;5097650;28;20238;-85
2023/10/24 03:26:10;;;;;;;5.20;4.70;;;12.30;99.90;;;;;;5117084;28;20527;-86
2023/10/24 03:28:36;;;;;;;6.17;5.07;;;12.40;99.90;;;;;;5097396;28;20693;-87
2023/10/24 03:31:03;;;;;;;5.97;5.33;;;12.40;99.90;;;;;;5098248;28;20174;-86
2023/10/24 03:33:30;;;;;;;5.97;5.37;;;12.50;99.90;;;;;;5097299;28;20257;-85
2023/10/24 03:35:56;;;;;;;6.30;5.70;;;12.50;99.90;;;;;;5097737;28;20246;-85
2023/10/24 03:38:22;;;;;;;7.03;5.50;;;12.50;99.90;;;;;;5097872;28;20187;-86
2023/10/24 03:40:49;;;;;;;6.97;6.00;;;12.50;99.90;;;;;;5099304;28;20581;-85
2023/10/24 03:43:15;;;;;;;7.50;6.70;;;12.50;99.90;;;;;;5098231;28;20218;-86
2023/10/24 03:45:40;;;;;;;6.87;6.17;;;12.40;99.90;;;;;;5098475;28;20173;-85
2023/10/24 03:48:06;;;;;;;6.97;6.27;;;12.40;99.90;;;;;;5097778;28;20184;-85
2023/10/24 03:50:36;;;;;;;8.53;6.67;;;12.40;99.90;;;;;;5098158;28;20258;-85
2023/10/24 03:53:02;;;;;;;7.33;6.63;;;12.40;99.90;;;;;;5097803;28;20173;-85
2023/10/24 03:55:27;;;;;;;7.50;6.67;;;12.50;99.90;;;;;;5097262;28;20256;-86
2023/10/24 03:57:53;;;;;;;9.63;8.07;;;12.50;99.90;;;;;;5097640;28;20626;-85
2023/10/24 04:00:19;;;;;;;8.60;7.70;;;12.60;99.90;;;;;;5097489;28;20170;-85
2023/10/24 04:02:46;;;;;;;8.23;7.13;;;12.60;99.90;;;;;;5096733;28;20530;-85
2023/10/24 04:05:11;;;;;;;8.07;7.27;;;12.60;99.90;;;;;;5097208;28;20253;-85
2023/10/24 04:07:37;;;;;;;9.13;8.23;;;12.60;99.90;;;;;;5097959;28;20171;-87
2023/10/24 04:10:04;;;;;;;8.87;7.50;;;12.60;99.90;;;;;;5097544;28;20180;-90
2023/10/24 04:12:30;;;;;;;9.80;7.33;;;12.50;99.90;;;;;;5115349;28;20171;-86
2023/10/24 04:14:56;;;;;;;9.10;7.87;;;12.50;99.90;;;;;;5100507;28;20203;-86
2023/10/24 04:17:22;;;;;;;10.23;7.80;;;12.50;99.90;;;;;;5096601;28;20170;-86
2023/10/24 04:19:48;;;;;;;9.10;8.20;;;12.60;99.90;;;;;;5096249;28;20174;-87
2023/10/24 04:22:14;;;;;;;9.23;8.33;;;12.70;99.90;;;;;;5097279;28;20189;-87
2023/10/24 04:24:39;;;;;;;11.13;8.50;;;12.70;99.90;;;;;;5096559;28;20425;-86
2023/10/24 04:27:08;;;;;;;9.13;8.23;;;12.60;99.90;;;;;;5097419;28;20189;-86
2023/10/24 04:29:33;;;;;;;8.77;7.87;;;12.50;99.90;;;;;;5096816;28;20567;-86
2023/10/24 04:32:00;;;;;;;9.60;7.87;;;12.50;99.90;;;;;;5096411;28;20177;-85
2023/10/24 04:34:26;;;;;;;10.80;7.97;;;12.50;99.90;;;;;;5096246;28;20218;-85
2023/10/24 04:36:53;;;;;;;8.50;7.60;;;12.40;99.90;;;;;;5097164;28;20167;-85
2023/10/24 04:39:19;;;;;;;10.63;8.30;;;12.40;99.90;;;;;;5095927;28;20709;-86
2023/10/24 04:41:47;;;;;;;10.40;8.43;;;12.40;99.90;;;;;;5096017;28;20262;-86
2023/10/24 04:44:14;;;;;;;9.17;8.10;;;12.40;99.90;;;;;;5096666;28;20206;-86
2023/10/24 04:46:40;;;;;;;11.80;8.80;;;12.30;99.90;;;;;;5095902;28;20216;-85
2023/10/24 04:49:06;;;;;;;11.43;9.57;;;12.30;99.90;;;;;;5096441;28;20173;-86
2023/10/24 04:51:32;;;;;;;11.27;9.67;;;12.30;99.90;;;;;;5096677;28;20170;-86
2023/10/24 04:53:59;;;;;;;11.93;9.27;;;12.30;99.90;;;;;;5100004;28;20175;-87
2023/10/24 04:56:24;;;;;;;13.47;9.70;;;12.30;99.90;;;;;;5080447;28;20177;-84
2023/10/24 04:58:54;;;;;;;11.17;8.90;;;12.30;99.90;;;;;;5095819;28;20578;-87
2023/10/24 05:01:20;;;;;;;12.23;10.00;;;12.30;99.90;;;;;;5099060;28;20282;-85
2023/10/24 05:03:46;;;;;;;11.73;9.60;;;12.30;99.90;;;;;;5100376;28;20694;-87
2023/10/24 05:06:13;;;;;;;12.87;9.70;;;12.20;99.90;;;;;;5100315;28;20272;-85
2023/10/24 05:08:39;;;;;;;13.33;10.80;;;12.20;99.90;;;;;;5100261;28;20180;-87
2023/10/24 05:11:05;;;;;;;12.23;10.60;;;12.20;99.90;;;;;;5100639;28;20163;-86
2023/10/24 05:13:30;;;;;;;13.03;10.40;;;12.20;99.90;;;;;;5118059;28;20177;-87
2023/10/24 05:15:56;;;;;;;12.67;10.33;;;12.20;99.90;;;;;;5100315;28;20540;-85
2023/10/24 05:18:22;;;;;;;12.83;10.70;;;12.20;99.90;;;;;;5101706;28;20166;-86
2023/10/24 05:20:48;;;;;;;11.90;10.03;;;12.20;99.90;;;;;;5102860;28;20175;-85
2023/10/24 05:23:13;;;;;;;12.67;10.03;;;12.20;99.90;;;;;;5101650;28;20214;-86
2023/10/24 05:25:42;;;;;;;16.50;10.37;;;12.20;99.90;;;;;;5104432;28;20185;-85
2023/10/24 05:28:07;;;;;;;12.13;10.03;;;12.20;99.90;;;;;;5122213;28;20161;-85
2023/10/24 05:30:33;;;;;;;13.30;11.03;;;12.20;99.90;;;;;;5104943;28;20179;-86
2023/10/24 05:32:59;;;;;;;11.73;9.90;;;12.20;99.90;;;;;;5103559;28;20168;-86
2023/10/24 05:35:25;;;;;;;12.90;9.87;;;12.20;99.90;;;;;;5102237;28;20197;-86
2023/10/24 05:37:55;;;;;;;11.27;9.73;;;12.20;99.90;;;;;;5086840;28;20197;-85
2023/10/24 05:40:23;;;;;;;11.00;9.70;;;12.20;99.90;;;;;;5103711;28;20179;-86
2023/10/24 05:42:49;;;;;;;11.47;9.20;;;12.10;99.90;;;;;;5102749;28;20198;-84
2023/10/24 05:45:14;;;;;;;11.33;8.90;;;12.10;99.90;;;;;;5100571;28;20237;-87
2023/10/24 05:47:40;;;;;;;11.93;8.80;;;12.10;99.90;;;;;;5100381;28;20194;-87
2023/10/24 05:50:06;;;;;;;13.23;9.60;;;12.10;99.90;;;;;;5099538;28;20194;-87
2023/10/24 05:52:32;;;;;;;10.83;9.43;;;12.20;99.90;;;;;;5100997;28;20171;-86
2023/10/24 05:54:58;;;;;;;10.43;9.23;;;12.20;99.90;;;;;;5100228;28;20522;-84
2023/10/24 05:57:24;;;;;;;11.53;9.03;;;12.10;99.90;;;;;;5100138;28;20181;-86
2023/10/24 05:59:50;;;;;;;11.57;9.23;;;12.10;99.90;;;;;;5102474;28;20178;-86
2023/10/24 06:02:17;;;;;;;12.00;9.47;;;12.10;99.90;;;;;;5085171;28;20181;-86
2023/10/24 06:04:43;;;;;;;10.80;8.80;;;12.10;99.90;;;;;;5080251;28;20310;-88
2023/10/24 06:07:09;;;;;;;9.40;7.80;;;12.10;99.90;;;;;;5091659;28;20216;-89
2023/10/24 06:09:35;;;;;;;8.90;7.87;;;12.10;99.90;;;;;;5091767;28;20171;-87
2023/10/24 06:12:01;;;;;;;10.67;8.13;;;12.00;99.90;;;;;;5081460;28;20209;-85
2023/10/24 06:14:27;;;;;;;9.23;7.80;;;12.10;99.90;;;;;;5081230;28;20265;-87
2023/10/24 06:16:53;;;;;;;10.80;7.67;;;12.00;99.90;;;;;;5080409;28;20227;-85
2023/10/24 06:19:20;;;;;;;10.40;7.73;;;12.10;99.90;;;;;;5097043;28;20282;-83
2023/10/24 06:21:46;;;;;;;9.90;7.30;;;12.10;99.90;;;;;;5096462;28;20807;-86
2023/10/24 06:24:12;;;;;;;12.53;7.67;;;12.10;99.90;;;;;;5079363;28;20222;-86
2023/10/24 06:26:37;;;;;;;13.10;8.20;;;12.20;99.90;;;;;;5079614;28;20179;-85
2023/10/24 06:29:03;;;;;;;9.23;7.40;;;12.20;99.90;;;;;;5079570;28;20624;-83
2023/10/24 06:31:29;;;;;;;10.70;7.83;;;12.20;99.90;;;;;;5080107;28;20183;-85
2023/10/24 06:33:54;;;;;;;11.87;7.23;;;12.20;99.90;;;;;;5078920;28;20177;-85
2023/10/24 06:36:21;;;;;;;9.77;6.80;;;12.20;99.90;;;;;;5078828;28;20187;-86
2023/10/24 06:38:47;;;;;;;15.47;7.57;;;12.30;99.90;;;;;;5096662;28;20188;-84
2023/10/24 06:41:13;;;;;;;10.73;6.53;;;12.30;99.90;;;;;;5079333;28;20591;-86
2023/10/24 06:43:39;;;;;;;8.07;6.83;;;12.20;99.90;;;;;;5078728;28;20194;-88
2023/10/24 06:46:05;;;;;;;8.87;6.70;;;12.20;99.90;;;;;;5079052;28;20205;-85
2023/10/24 06:48:32;;;;;;;11.83;7.13;;;12.20;99.90;;;;;;5079062;28;20181;-86
2023/10/24 06:50:58;;;;;;;12.17;7.83;;;12.20;99.90;;;;;;5096960;28;20341;-87
2023/10/24 06:53:24;;;;;;;17.80;9.37;;;12.20;99.90;;;;;;5081068;28;20266;-87
2023/10/24 06:55:50;;;;;;;16.70;9.00;;;12.40;99.90;;;;;;5080649;28;20172;-88
2023/10/24 06:58:16;;;;;;;14.50;9.07;;;12.40;99.90;;;;;;5079290;28;20631;-86
2023/10/24 07:00:43;;;;;;;9.50;6.70;;;12.50;99.90;;;;;;5079513;28;20177;-88
2023/10/24 07:03:09;;;;;;;9.80;6.90;;;12.50;99.90;;;;;;5084945;28;20204;-88
2023/10/24 07:05:35;;;;;;;9.60;6.80;;;12.50;99.90;;;;;;5085424;28;20168;-88
2023/10/24 07:08:03;;;;;;;11.00;6.83;;;12.50;99.90;;;;;;5089441;28;20166;-85
2023/10/24 07:10:30;;;;;;;11.20;6.70;;;12.50;99.90;;;;;;5089868;28;20312;-87
2023/10/24 07:12:55;;;;;;;9.43;6.47;;;12.60;99.90;;;;;;5088607;28;20166;-87
2023/10/24 07:15:21;;;;;;;13.30;7.10;;;12.60;99.90;;;;;;5087870;28;20173;-88
2023/10/24 07:17:47;;;;;;;8.00;7.00;;;12.60;99.90;;;;;;5100817;28;20187;-88
2023/10/24 07:20:12;;;;;;;8.83;6.83;;;12.70;99.90;;;;;;5081696;28;20167;-88
2023/10/24 07:22:38;;;;;;;10.67;6.60;;;12.80;99.90;;;;;;5079859;28;20221;-85
2023/10/24 07:25:04;;;;;;;8.60;6.23;;;12.80;99.90;;;;;;5079729;28;20352;-89
2023/10/24 07:27:31;;;;;;;7.90;6.10;;;12.80;99.90;;;;;;5080122;28;20242;-89
2023/10/24 07:29:57;;;;;;;10.60;6.60;;;12.80;99.90;;;;;;5079239;28;20685;-89
2023/10/24 07:32:23;;;;;;;9.10;6.43;;;12.80;99.90;;;;;;5079866;28;20186;-88
2023/10/24 07:34:49;;;;;;;8.30;6.33;;;12.90;99.90;;;;;;5080145;28;20185;-88
2023/10/24 07:37:15;;;;;;;11.00;6.37;;;12.90;99.90;;;;;;5080932;28;20202;-89
2023/10/24 07:39:40;;;;;;;10.33;6.47;;;12.90;99.90;;;;;;5078516;28;20515;-88
2023/10/24 07:42:06;;;;;;;8.70;6.50;;;12.90;99.90;;;;;;5078833;28;20225;-89
2023/10/24 07:44:32;;;;;;;7.43;6.20;;;13.00;99.90;;;;;;5079109;28;20217;-88
2023/10/24 07:46:58;;;;;;;7.43;5.90;;;13.10;99.90;;;;;;5096469;28;20176;-87
2023/10/24 07:49:23;;;;;;;11.00;6.40;;;13.10;99.90;;;;;;5079188;28;20536;-88
2023/10/24 07:51:49;;;;;;;8.00;6.10;;;13.10;99.90;;;;;;5078357;28;20628;-87
2023/10/24 07:54:15;;;;;;;8.83;6.57;;;13.10;99.90;;;;;;5077757;28;20178;-88
2023/10/24 07:56:41;;;;;;;11.87;7.00;;;13.20;99.90;;;;;;5078412;28;20243;-90
2023/10/24 07:59:07;;;;;;;9.63;6.93;;;13.20;99.90;;;;;;5078502;28;20259;-88
2023/10/24 08:01:34;;;;;;;8.73;6.70;;;13.20;99.90;;;;;;5077961;28;20635;-88
2023/10/24 08:04:00;;;;;;;10.63;7.70;;;13.20;99.90;;;;;;5070355;28;20285;-88
2023/10/24 08:06:26;;;;;;;13.77;8.03;;;13.10;99.90;;;;;;5058702;28;20188;-89
2023/10/24 08:08:52;;;;;;;11.07;7.83;;;13.10;99.90;;;;;;5061592;28;20226;-90
2023/10/24 08:11:20;;;;;;;9.97;7.97;;;13.10;99.90;;;;;;5058999;28;20168;-89
2023/10/24 08:13:46;;;;;;;11.30;8.60;;;13.10;99.90;;;;;;5059570;28;20290;-87
2023/10/24 08:16:12;;;;;;;10.07;8.03;;;13.10;99.90;;;;;;5058634;28;20201;-88
2023/10/24 08:18:38;;;;;;;11.97;7.83;;;13.10;99.90;;;;;;5060136;28;20180;-87
2023/10/24 08:21:04;;;;;;;10.27;8.23;;;13.20;99.90;;;;;;5059536;28;20172;-88
2023/10/24 08:23:30;;;;;;;10.50;7.83;;;13.20;99.90;;;;;;5075196;28;20211;-90
2023/10/24 08:25:59;;;;;;;9.07;8.17;;;13.30;99.90;;;;;;5078059;28;20262;-87
2023/10/24 08:28:24;;;;;;;11.23;8.60;;;13.30;99.90;;;;;;5095699;28;20615;-89
2023/10/24 08:30:50;;;;;;;16.63;12.17;;;13.30;99.90;;;;;;5098765;28;20171;-89
2023/10/24 08:33:18;;;;;;;13.17;10.50;;;13.30;99.90;;;;;;5107139;28;20225;-88
2023/10/24 08:35:47;;;;;;;14.47;9.73;;;13.30;99.90;;;;;;5091248;28;20186;-91
2023/10/24 08:38:13;;;;;;;12.27;9.50;;;13.30;99.90;;;;;;5099749;28;20186;-90
2023/10/24 08:40:42;;;;;;;13.30;9.20;;;13.30;99.90;;;;;;5084490;28;20247;-87
2023/10/24 08:43:09;;;;;;;11.47;9.10;;;13.30;99.90;;;;;;5081413;28;20623;-87
2023/10/24 08:45:36;;;;;;;13.60;9.47;;;13.30;99.90;;;;;;5097735;28;20170;-86
2023/10/24 08:48:05;;;;;;;11.63;9.13;;;13.30;99.90;;;;;;5097980;28;20627;-86
2023/10/24 08:50:33;;;;;;;12.87;9.97;;;13.20;99.90;;;;;;5097444;28;20178;-85
2023/10/24 08:53:11;;;;;;;12.33;9.50;;;13.20;99.90;;;;;;5096979;28;20637;-86
2023/10/24 08:55:52;;;;;;;11.47;9.40;;;13.20;99.90;;;;;;5054497;28;20220;-87
2023/10/24 08:58:19;;;;;;;10.30;8.63;;;13.10;99.90;;;;;;5078485;28;20182;-87
2023/10/24 09:00:50;;;;;;;12.27;10.27;;;13.10;99.90;;;;;;5085662;28;20229;-90
2023/10/24 09:03:16;;;;;;;13.07;10.20;;;13.20;99.90;;;;;;5077550;28;20208;-87
2023/10/24 09:05:45;;;;;;;19.17;17.20;;;13.20;99.90;;;;;;5075671;28;20188;-88
2023/10/24 09:08:12;;;;;;;13.70;9.63;;;13.30;99.90;;;;;;5076897;28;20177;-86
2023/10/24 09:10:38;;;;;;;10.97;9.07;;;13.20;99.90;;;;;;5079362;28;20176;-86
2023/10/24 09:13:05;;;;;;;9.33;8.17;;;13.20;99.90;;;;;;5077598;28;20187;-88
2023/10/24 09:15:34;;;;;;;10.47;8.37;;;13.20;99.90;;;;;;5077065;28;20267;-87
2023/10/24 09:18:04;;;;;;;9.30;8.40;;;13.20;99.90;;;;;;5075854;28;20172;-87
2023/10/24 09:20:34;;;;;;;25.00;22.40;;;13.20;99.90;;;;;;5080991;28;20168;-88
2023/10/24 09:23:07;;;;;;;11.97;9.40;;;13.20;99.90;;;;;;5092747;28;20172;-86
2023/10/24 09:25:34;;;;;;;8.47;7.57;;;13.20;99.90;;;;;;5079136;28;20183;-87
2023/10/24 09:28:16;;;;;;;9.40;7.23;;;13.20;99.90;;;;;;5059531;28;20302;-87
2023/10/24 09:30:49;;;;;;;8.23;6.57;;;13.30;99.90;;;;;;5058043;28;20233;-87
2023/10/24 09:33:16;;;;;;;8.70;6.60;;;13.30;99.90;;;;;;5058492;28;20219;-87
2023/10/24 09:35:42;;;;;;;9.33;6.90;;;13.30;99.90;;;;;;5057838;28;20229;-87
2023/10/24 09:38:08;;;;;;;8.80;5.83;;;13.30;99.90;;;;;;5059561;28;20192;-89
2023/10/24 09:40:36;;;;;;;8.70;6.67;;;13.30;99.90;;;;;;5066244;28;20190;-89
2023/10/24 09:43:07;;;;;;;9.03;6.57;;;13.40;99.90;;;;;;5080815;28;20198;-87
2023/10/24 09:45:33;;;;;;;6.43;3.33;;;13.30;99.90;;;;;;5101786;28;20635;-87
2023/10/24 09:47:59;;;;;;;3.70;2.00;;;13.20;99.90;;;;;;5101041;28;20195;-89
2023/10/24 09:50:26;;;;;;;4.53;2.40;;;13.10;99.90;;;;;;5089532;28;20537;-87
2023/10/24 09:52:52;;;;;;;1.90;1.40;;;13.00;99.90;;;;;;5082097;28;20167;-86
2023/10/24 09:55:18;;;;;;;3.63;1.67;;;13.00;99.90;;;;;;5082914;28;20207;-85
2023/10/24 09:57:46;;;;;;;2.57;1.90;;;12.90;99.90;;;;;;5080682;28;20276;-85
2023/10/24 10:00:12;;;;;;;5.00;3.50;;;12.90;99.90;;;;;;5079860;28;20187;-86
2023/10/24 10:02:43;;;;;;;4.63;3.77;;;12.90;99.90;;;;;;5079973;28;20178;-87
2023/10/24 10:05:09;;;;;;;5.30;3.87;;;13.00;99.90;;;;;;5080676;28;20231;-87
2023/10/24 10:07:36;;;;;;;5.40;4.23;;;13.00;99.90;;;;;;5097772;28;20171;-88
2023/10/24 10:10:04;;;;;;;6.03;4.23;;;13.20;99.90;;;;;;5080130;28;20184;-87
2023/10/24 10:12:32;;;;;;;5.13;3.80;;;13.10;99.90;;;;;;5079553;28;20175;-87
2023/10/24 10:15:21;;;;;;;5.53;3.67;;;13.10;99.90;;;;;;5081423;28;20183;-86
2023/10/24 10:18:29;;;;;;;5.17;3.77;;;13.00;99.90;;;;;;5082748;28;20222;-86
2023/10/24 10:21:12;;;;;;;5.53;4.00;;;13.10;99.90;;;;;;5033287;28;20200;-87
2023/10/24 10:23:52;;;;;;;4.07;3.33;;;13.00;99.90;;;;;;5081244;28;20207;-87
2023/10/24 10:26:25;;;;;;;4.63;3.10;;;13.00;99.90;;;;;;5081071;28;20181;-86
2023/10/24 10:29:30;;;;;;;5.67;3.43;;;13.10;99.90;;;;;;5089793;28;20274;-84
2023/10/24 10:31:59;;;;;;;6.20;3.30;;;13.10;99.90;;;;;;5097844;28;20169;-90
2023/10/24 10:34:36;;;;;;;4.13;2.90;;;13.10;99.90;;;;;;5079653;28;20176;-87
2023/10/24 10:37:09;;;;;;;6.17;3.37;;;13.10;99.90;;;;;;5080203;28;20171;-85
2023/10/24 10:39:35;;;;;;;4.87;2.80;;;13.10;99.90;;;;;;5115007;28;20164;-85
2023/10/24 10:42:01;;;;;;;5.17;3.13;;;13.20;99.90;;;;;;5081274;28;20178;-88
2023/10/24 10:44:33;;;;;;;7.17;3.40;;;13.30;99.90;;;;;;5117150;28;20203;-87
2023/10/24 10:47:00;;;;;;;5.90;3.07;;;13.20;99.90;;;;;;5080523;28;20677;-86
2023/10/24 10:49:36;;;;;;;4.97;2.93;;;13.20;99.90;;;;;;5080277;28;20198;-85
2023/10/24 10:52:04;;;;;;;4.87;3.03;;;13.20;99.90;;;;;;5079970;28;20529;-86
2023/10/24 10:54:55;;;;;;;6.13;2.50;;;13.30;99.90;;;;;;5081839;28;20203;-86
2023/10/24 10:57:32;;;;;;;8.00;3.50;;;13.30;99.90;;;;;;5084310;28;20204;-87
2023/10/24 11:00:17;;;;;;;4.07;2.50;;;13.30;99.90;;;;;;5088127;28;20185;-88
2023/10/24 11:03:03;;;;;;;6.07;2.87;;;13.30;99.90;;;;;;5094644;28;20173;-89
2023/10/24 11:05:36;;;;;;;6.73;2.70;;;13.30;99.90;;;;;;5079063;28;20192;-88
2023/10/24 11:08:09;;;;;;;8.67;2.73;;;13.40;99.90;;;;;;5079006;28;20182;-85
2023/10/24 11:10:54;;;;;;;7.53;2.43;;;13.50;99.90;;;;;;5080118;28;20207;-86
2023/10/24 11:13:43;;;;;;;4.70;2.63;;;13.60;99.90;;;;;;5078653;28;20181;-89
2023/10/24 11:16:14;;;;;;;6.20;2.60;;;13.90;99.90;;;;;;5080407;28;20335;-87
2023/10/24 11:18:43;;;;;;;5.20;2.43;;;14.10;99.90;;;;;;5080677;28;20178;-88
2023/10/24 11:21:10;;;;;;;4.93;2.50;;;14.10;99.90;;;;;;5078792;28;20173;-86
2023/10/24 11:23:42;;;;;;;5.60;2.93;;;14.10;99.90;;;;;;5079686;28;20222;-87
2023/10/24 11:26:09;;;;;;;7.70;3.20;;;14.30;99.90;;;;;;5079116;28;20689;-87
2023/10/24 11:28:35;;;;;;;3.90;2.60;;;14.50;99.90;;;;;;5080674;28;20175;-91
2023/10/24 11:31:21;;;;;;;3.80;2.20;;;14.70;99.90;;;;;;5080549;28;20167;-89
2023/10/24 11:33:48;;;;;;;4.37;2.40;;;14.70;99.90;;;;;;5080881;28;20172;-86
2023/10/24 11:36:16;;;;;;;2.97;2.10;;;14.70;99.90;;;;;;5080646;28;20523;-89
2023/10/24 11:38:42;;;;;;;4.00;2.30;;;14.80;99.90;;;;;;5110529;28;20572;-85
2023/10/24 11:41:08;;;;;;;4.63;2.20;;;14.90;99.90;;;;;;5097137;28;20246;-85
2023/10/24 11:43:34;;;;;;;3.43;1.80;;;15.00;99.90;;;;;;5079230;28;20232;-88
2023/10/24 11:46:02;;;;;;;3.23;2.00;;;15.00;99.90;;;;;;5113221;28;20176;-88
2023/10/24 11:48:28;;;;;;;3.20;1.80;;;14.90;99.90;;;;;;5078536;28;20171;-85
2023/10/24 11:50:54;;;;;;;3.83;2.07;;;15.00;99.90;;;;;;5097428;28;20692;-88
2023/10/24 11:53:23;;;;;;;2.93;1.50;;;15.10;99.90;;;;;;5069963;28;20187;-88
2023/10/24 11:55:50;;;;;;;4.23;1.80;;;15.10;97.70;;;;;;5080912;28;20174;-87
2023/10/24 11:58:21;;;;;;;3.63;1.60;;;15.20;96.50;;;;;;5079130;28;20288;-85
2023/10/24 12:00:46;;;;;;;3.80;1.60;;;15.30;94.90;;;;;;5079882;28;20174;-85
2023/10/24 12:03:12;;;;;;;3.27;1.70;;;15.20;93.40;;;;;;5079791;28;20256;-88
2023/10/24 12:05:51;;;;;;;2.83;1.40;;;15.20;91.50;;;;;;5079560;28;20337;-86
2023/10/24 12:08:25;;;;;;;5.07;2.03;;;15.30;82.10;;;;;;5078939;28;20185;-87
2023/10/24 12:10:55;;;;;;;3.10;1.70;;;15.20;86.80;;;;;;5080371;28;20170;-87
2023/10/24 12:13:23;;;;;;;3.37;1.70;;;15.20;86.10;;;;;;5083923;28;20191;-88
2023/10/24 12:15:51;;;;;;;4.00;1.80;;;15.30;80.30;;;;;;5078926;28;20219;-85
2023/10/24 12:18:21;;;;;;;3.47;1.57;;;15.40;70.60;;;;;;5073116;28;20183;-86
2023/10/24 12:20:51;;;;;;;4.70;1.90;;;15.50;74.40;;;;;;5064767;28;20193;-87
2023/10/24 12:23:32;;;;;;;3.60;2.07;;;15.50;75.20;;;;;;5063181;28;20684;-87
2023/10/24 12:26:05;;;;;;;4.87;2.10;;;15.50;69.70;;;;;;5060166;28;20174;-85
2023/10/24 12:31:19;;;;;;;2.90;1.67;;;15.80;66.50;;;;;;5150722;23;20256;-86
2023/10/24 12:33:45;;;;;;;5.53;1.87;;;15.90;57.80;;;;;;5057434;28;20195;-87
2023/10/24 12:36:13;;;;;;;3.20;1.70;;;15.80;57.30;;;;;;5059288;28;20179;-86
2023/10/24 12:38:40;;;;;;;3.10;2.10;;;15.70;57.00;;;;;;5057999;28;20196;-86
2023/10/24 12:41:09;;;;;;;6.33;2.20;;;15.80;59.00;;;;;;5046082;28;20184;-87
2023/10/24 12:43:35;;;;;;;3.23;2.27;;;15.80;57.40;;;;;;5036572;28;20233;-86
2023/10/24 12:46:00;;;;;;;6.33;2.77;;;15.80;59.70;;;;;;5038120;28;20178;-87
2023/10/24 12:48:33;;;;;;;4.30;2.10;;;15.70;59.70;;;;;;5037182;28;20174;-87